الصفحة الرئيسية
METAR-TAF:

METAR-TAF

مطار :

دوشنبه, طاجيكستان

مطار دوشانبي الدولي

دائرة عرض: 38-33N, خط طول: 068-47E, ارتفاع: 803 متر

مراقبة الطقس الحالي

تاريخ ووقت الإصدار 37 دقيقة قبل الساعة 06:30UTC
ريح 4 عقدة من الجنوب/الجنوب الغربي
درجة الحرارة 10°درجة مئوية
الرطوبة 50%
ضغط 1022 hPa
الرؤية: 1900 متر
دخان

METAR: UTDD 190630Z 20002MPS 1900 FU NSC 10/00 Q1022 R09/D NOSIG RMK QFE698/0930

زمن: 12:07 (07:07 UTC)

توقعات

تاريخ ووقت الإصدار 1ساعة و 7 دقيقة قبل الساعة 06:00UTC
التوقعات صالحة من19 الساعة 07 UTC إلى 19 الساعة 19 UTC
ريح 4 عقدةمن اتجاهات متغيرة
الرؤية: 5000 متر
غيوم متفرقة على ارتفاع 5000 قدم
غيوم مفككة على ارتفاع 10000 قدم
غشاء, دخان
مؤقت
من 19 الساعة 07 UTC إلى 19 الساعة 08 UTC
الرؤية: 1400 متر
غشاء, دخان
مؤقت
من 19 الساعة 13 UTC إلى 19 الساعة 19 UTC
الرؤية: 1000 متر
غشاء, دخان

TAF: UTDD 190600Z 1907/1919 VRB02MPS 5000 BR FU SCT050 BKN100 TEMPO 1907/1908 1400 BR FU TEMPO 1913/1919 1000 BR FU

أرصاد الطقس والتوقعات من أكثر من 4000 مطار (تقارير الطقس للمطار METAR والتنبؤ بالطقس بالمطارTAF).

المحطات المتاحة هي النقط الصفراء والحمراء على الخريطة.

حرك المؤشر فوق النقطة لمعرفة اسم المحطة.

ثم انقر لمعرفة أرصاد وتوقعات الطقس.

لتغيير الخارطة: اضغط على الأزرار الخضراء مع رمز الصليب الأسود للتكبير. على الزر الأخضر مع شرطة للتصغير، أو على الأسهم الخضراء للخرائط المجاورة.


METAR-TAF: